sensor_id;sensor_type;location;lat;lon;timestamp;P1;durP1;ratioP1;P2;durP2;ratioP2
73898;SDS011;62234;50.892;12.724;2024-03-23T00:55:43;4.80;;;3.65;;
73898;SDS011;62234;50.892;12.724;2024-03-23T00:58:09;6.18;;;4.30;;
73898;SDS011;62234;50.892;12.724;2024-03-23T01:00:35;5.63;;;4.47;;
73898;SDS011;62234;50.892;12.724;2024-03-23T01:03:01;10.50;;;3.80;;
73898;SDS011;62234;50.892;12.724;2024-03-23T01:05:27;6.05;;;3.80;;
73898;SDS011;62234;50.892;12.724;2024-03-23T01:07:53;7.38;;;4.72;;
73898;SDS011;62234;50.892;12.724;2024-03-23T01:10:19;5.40;;;4.00;;
73898;SDS011;62234;50.892;12.724;2024-03-23T01:12:45;8.18;;;3.75;;
73898;SDS011;62234;50.892;12.724;2024-03-23T01:15:11;6.40;;;4.45;;
73898;SDS011;62234;50.892;12.724;2024-03-23T01:17:37;7.40;;;4.10;;
73898;SDS011;62234;50.892;12.724;2024-03-23T01:20:02;7.88;;;4.47;;
73898;SDS011;62234;50.892;12.724;2024-03-23T01:22:29;8.88;;;4.53;;
73898;SDS011;62234;50.892;12.724;2024-03-23T01:24:55;6.55;;;4.15;;
73898;SDS011;62234;50.892;12.724;2024-03-23T01:27:20;6.03;;;3.88;;
73898;SDS011;62234;50.892;12.724;2024-03-23T01:29:46;6.55;;;4.65;;
73898;SDS011;62234;50.892;12.724;2024-03-23T01:32:12;4.45;;;4.00;;
73898;SDS011;62234;50.892;12.724;2024-03-23T01:34:38;7.63;;;3.63;;
73898;SDS011;62234;50.892;12.724;2024-03-23T01:37:04;6.47;;;4.20;;
73898;SDS011;62234;50.892;12.724;2024-03-23T01:39:30;7.07;;;4.13;;
73898;SDS011;62234;50.892;12.724;2024-03-23T01:41:56;9.25;;;4.88;;
73898;SDS011;62234;50.892;12.724;2024-03-23T01:44:22;15.48;;;6.90;;
73898;SDS011;62234;50.892;12.724;2024-03-23T01:46:48;15.00;;;6.55;;
73898;SDS011;62234;50.892;12.724;2024-03-23T01:49:14;17.95;;;8.02;;
73898;SDS011;62234;50.892;12.724;2024-03-23T01:51:40;18.98;;;8.45;;
73898;SDS011;62234;50.892;12.724;2024-03-23T01:54:07;18.30;;;8.40;;
73898;SDS011;62234;50.892;12.724;2024-03-23T01:56:33;18.95;;;9.40;;
73898;SDS011;62234;50.892;12.724;2024-03-23T01:59:00;19.55;;;9.13;;
73898;SDS011;62234;50.892;12.724;2024-03-23T02:01:26;20.90;;;9.18;;
73898;SDS011;62234;50.892;12.724;2024-03-23T02:03:52;15.98;;;7.90;;
73898;SDS011;62234;50.892;12.724;2024-03-23T02:06:18;19.98;;;9.65;;
73898;SDS011;62234;50.892;12.724;2024-03-23T02:08:44;21.77;;;10.43;;
73898;SDS011;62234;50.892;12.724;2024-03-23T02:11:10;22.67;;;10.40;;
73898;SDS011;62234;50.892;12.724;2024-03-23T02:13:35;26.92;;;12.35;;
73898;SDS011;62234;50.892;12.724;2024-03-23T02:16:01;23.20;;;11.10;;
73898;SDS011;62234;50.892;12.724;2024-03-23T02:18:27;25.02;;;11.65;;
73898;SDS011;62234;50.892;12.724;2024-03-23T02:20:53;27.27;;;12.40;;
73898;SDS011;62234;50.892;12.724;2024-03-23T02:23:19;30.67;;;13.18;;
73898;SDS011;62234;50.892;12.724;2024-03-23T02:25:45;29.60;;;13.43;;
73898;SDS011;62234;50.892;12.724;2024-03-23T02:28:11;30.45;;;14.45;;
73898;SDS011;62234;50.892;12.724;2024-03-23T02:30:37;28.55;;;12.98;;
73898;SDS011;62234;50.892;12.724;2024-03-23T02:33:03;31.52;;;14.02;;
73898;SDS011;62234;50.892;12.724;2024-03-23T02:35:29;31.73;;;13.45;;
73898;SDS011;62234;50.892;12.724;2024-03-23T02:37:55;26.52;;;12.68;;
73898;SDS011;62234;50.892;12.724;2024-03-23T02:40:22;28.45;;;11.05;;
73898;SDS011;62234;50.892;12.724;2024-03-23T02:42:49;31.38;;;14.73;;
73898;SDS011;62234;50.892;12.724;2024-03-23T02:45:15;39.03;;;13.18;;
73898;SDS011;62234;50.892;12.724;2024-03-23T02:47:40;26.30;;;13.27;;
73898;SDS011;62234;50.892;12.724;2024-03-23T02:50:07;28.08;;;13.32;;
73898;SDS011;62234;50.892;12.724;2024-03-23T02:52:34;32.53;;;14.10;;
73898;SDS011;62234;50.892;12.724;2024-03-23T02:54:59;34.58;;;13.13;;
73898;SDS011;62234;50.892;12.724;2024-03-23T02:57:27;27.40;;;12.82;;
73898;SDS011;62234;50.892;12.724;2024-03-23T02:59:53;30.08;;;13.27;;
73898;SDS011;62234;50.892;12.724;2024-03-23T03:02:19;27.75;;;12.85;;
73898;SDS011;62234;50.892;12.724;2024-03-23T03:04:45;30.73;;;13.57;;
73898;SDS011;62234;50.892;12.724;2024-03-23T03:07:11;28.65;;;13.65;;
73898;SDS011;62234;50.892;12.724;2024-03-23T03:09:37;30.23;;;13.77;;
73898;SDS011;62234;50.892;12.724;2024-03-23T03:12:04;30.63;;;13.95;;
73898;SDS011;62234;50.892;12.724;2024-03-23T03:14:30;30.15;;;13.60;;
73898;SDS011;62234;50.892;12.724;2024-03-23T03:16:56;33.13;;;14.13;;
73898;SDS011;62234;50.892;12.724;2024-03-23T03:19:22;29.23;;;13.45;;
73898;SDS011;62234;50.892;12.724;2024-03-23T03:21:48;30.05;;;12.57;;
73898;SDS011;62234;50.892;12.724;2024-03-23T03:24:14;26.75;;;13.35;;
73898;SDS011;62234;50.892;12.724;2024-03-23T03:26:40;32.08;;;12.90;;
73898;SDS011;62234;50.892;12.724;2024-03-23T03:29:06;29.52;;;12.50;;
73898;SDS011;62234;50.892;12.724;2024-03-23T03:31:32;32.92;;;15.52;;
73898;SDS011;62234;50.892;12.724;2024-03-23T03:33:58;33.58;;;14.13;;
73898;SDS011;62234;50.892;12.724;2024-03-23T03:36:23;31.55;;;15.05;;
73898;SDS011;62234;50.892;12.724;2024-03-23T03:38:49;29.65;;;13.55;;
73898;SDS011;62234;50.892;12.724;2024-03-23T03:41:15;30.40;;;13.38;;
73898;SDS011;62234;50.892;12.724;2024-03-23T03:43:41;34.08;;;14.10;;
73898;SDS011;62234;50.892;12.724;2024-03-23T03:46:07;35.95;;;14.82;;
73898;SDS011;62234;50.892;12.724;2024-03-23T03:48:33;36.25;;;14.02;;
73898;SDS011;62234;50.892;12.724;2024-03-23T03:50:59;35.03;;;14.65;;
73898;SDS011;62234;50.892;12.724;2024-03-23T03:53:25;34.38;;;15.50;;
73898;SDS011;62234;50.892;12.724;2024-03-23T03:55:51;29.40;;;13.23;;
73898;SDS011;62234;50.892;12.724;2024-03-23T03:58:17;29.52;;;14.68;;
73898;SDS011;62234;50.892;12.724;2024-03-23T04:00:43;30.48;;;13.57;;
73898;SDS011;62234;50.892;12.724;2024-03-23T04:03:09;31.23;;;14.48;;
73898;SDS011;62234;50.892;12.724;2024-03-23T04:05:35;31.67;;;14.07;;
73898;SDS011;62234;50.892;12.724;2024-03-23T04:08:01;36.88;;;15.10;;
73898;SDS011;62234;50.892;12.724;2024-03-23T04:10:27;31.52;;;13.98;;
73898;SDS011;62234;50.892;12.724;2024-03-23T04:12:53;37.80;;;14.07;;
73898;SDS011;62234;50.892;12.724;2024-03-23T04:15:19;39.25;;;14.93;;
73898;SDS011;62234;50.892;12.724;2024-03-23T04:17:45;37.38;;;15.18;;
73898;SDS011;62234;50.892;12.724;2024-03-23T04:20:11;34.72;;;15.90;;
73898;SDS011;62234;50.892;12.724;2024-03-23T04:22:40;39.60;;;15.60;;
73898;SDS011;62234;50.892;12.724;2024-03-23T04:25:06;38.75;;;15.02;;
73898;SDS011;62234;50.892;12.724;2024-03-23T04:27:33;31.95;;;13.38;;
73898;SDS011;62234;50.892;12.724;2024-03-23T04:29:59;36.35;;;14.88;;
73898;SDS011;62234;50.892;12.724;2024-03-23T04:32:26;36.97;;;15.05;;
73898;SDS011;62234;50.892;12.724;2024-03-23T04:34:52;30.55;;;13.80;;
73898;SDS011;62234;50.892;12.724;2024-03-23T04:37:19;32.15;;;14.07;;
73898;SDS011;62234;50.892;12.724;2024-03-23T04:39:45;31.00;;;13.50;;
73898;SDS011;62234;50.892;12.724;2024-03-23T04:42:11;30.95;;;13.32;;
73898;SDS011;62234;50.892;12.724;2024-03-23T04:44:37;26.85;;;12.60;;
73898;SDS011;62234;50.892;12.724;2024-03-23T04:47:03;30.13;;;13.55;;
73898;SDS011;62234;50.892;12.724;2024-03-23T04:49:30;25.88;;;13.45;;
73898;SDS011;62234;50.892;12.724;2024-03-23T04:51:56;25.45;;;13.05;;
73898;SDS011;62234;50.892;12.724;2024-03-23T04:54:22;25.00;;;12.18;;
73898;SDS011;62234;50.892;12.724;2024-03-23T04:56:48;25.50;;;12.40;;
73898;SDS011;62234;50.892;12.724;2024-03-23T04:59:14;30.63;;;13.20;;
73898;SDS011;62234;50.892;12.724;2024-03-23T05:01:40;28.63;;;12.50;;
73898;SDS011;62234;50.892;12.724;2024-03-23T05:04:07;28.55;;;12.32;;
73898;SDS011;62234;50.892;12.724;2024-03-23T05:06:33;27.33;;;13.38;;
73898;SDS011;62234;50.892;12.724;2024-03-23T05:09:02;28.10;;;12.20;;
73898;SDS011;62234;50.892;12.724;2024-03-23T05:11:31;25.85;;;12.90;;
73898;SDS011;62234;50.892;12.724;2024-03-23T05:13:58;30.52;;;13.23;;
73898;SDS011;62234;50.892;12.724;2024-03-23T05:16:23;29.23;;;11.98;;
73898;SDS011;62234;50.892;12.724;2024-03-23T05:18:49;33.55;;;13.20;;
73898;SDS011;62234;50.892;12.724;2024-03-23T05:21:15;27.67;;;12.57;;
73898;SDS011;62234;50.892;12.724;2024-03-23T05:23:41;27.98;;;11.43;;
73898;SDS011;62234;50.892;12.724;2024-03-23T05:26:08;29.58;;;12.48;;
73898;SDS011;62234;50.892;12.724;2024-03-23T05:28:34;28.27;;;10.95;;
73898;SDS011;62234;50.892;12.724;2024-03-23T05:31:00;26.58;;;12.85;;
73898;SDS011;62234;50.892;12.724;2024-03-23T05:33:26;29.27;;;13.13;;
73898;SDS011;62234;50.892;12.724;2024-03-23T05:35:58;27.98;;;12.93;;
73898;SDS011;62234;50.892;12.724;2024-03-23T05:38:24;28.23;;;11.80;;
73898;SDS011;62234;50.892;12.724;2024-03-23T05:43:20;24.40;;;10.85;;
73898;SDS011;62234;50.892;12.724;2024-03-23T05:45:46;27.65;;;11.35;;
73898;SDS011;62234;50.892;12.724;2024-03-23T05:48:18;29.60;;;11.60;;
73898;SDS011;62234;50.892;12.724;2024-03-23T05:50:44;27.58;;;12.05;;
73898;SDS011;62234;50.892;12.724;2024-03-23T05:53:10;20.95;;;10.68;;
73898;SDS011;62234;50.892;12.724;2024-03-23T05:55:37;20.73;;;11.15;;
73898;SDS011;62234;50.892;12.724;2024-03-23T05:58:03;27.17;;;12.77;;
73898;SDS011;62234;50.892;12.724;2024-03-23T06:00:30;22.77;;;10.57;;
73898;SDS011;62234;50.892;12.724;2024-03-23T06:02:56;27.67;;;12.18;;
73898;SDS011;62234;50.892;12.724;2024-03-23T06:05:22;26.67;;;11.45;;
73898;SDS011;62234;50.892;12.724;2024-03-23T06:07:48;25.45;;;12.40;;
73898;SDS011;62234;50.892;12.724;2024-03-23T06:10:15;22.55;;;11.60;;
73898;SDS011;62234;50.892;12.724;2024-03-23T06:12:41;26.73;;;12.73;;
73898;SDS011;62234;50.892;12.724;2024-03-23T06:15:07;22.75;;;11.35;;
73898;SDS011;62234;50.892;12.724;2024-03-23T06:17:35;23.52;;;12.50;;
73898;SDS011;62234;50.892;12.724;2024-03-23T06:20:01;22.48;;;11.32;;
73898;SDS011;62234;50.892;12.724;2024-03-23T06:22:27;28.00;;;12.23;;
73898;SDS011;62234;50.892;12.724;2024-03-23T06:24:53;20.88;;;10.95;;
73898;SDS011;62234;50.892;12.724;2024-03-23T06:27:19;21.83;;;10.43;;
73898;SDS011;62234;50.892;12.724;2024-03-23T06:29:45;25.13;;;11.52;;
73898;SDS011;62234;50.892;12.724;2024-03-23T06:32:11;21.80;;;10.38;;
73898;SDS011;62234;50.892;12.724;2024-03-23T06:34:37;25.45;;;11.98;;
73898;SDS011;62234;50.892;12.724;2024-03-23T06:37:03;23.25;;;11.43;;
73898;SDS011;62234;50.892;12.724;2024-03-23T06:39:29;30.42;;;13.20;;
73898;SDS011;62234;50.892;12.724;2024-03-23T06:41:55;21.98;;;11.43;;
73898;SDS011;62234;50.892;12.724;2024-03-23T06:44:21;22.35;;;11.43;;
73898;SDS011;62234;50.892;12.724;2024-03-23T06:46:47;27.15;;;11.77;;
73898;SDS011;62234;50.892;12.724;2024-03-23T06:49:16;22.02;;;11.55;;
73898;SDS011;62234;50.892;12.724;2024-03-23T06:51:42;24.30;;;11.00;;
73898;SDS011;62234;50.892;12.724;2024-03-23T06:54:08;22.05;;;11.73;;
73898;SDS011;62234;50.892;12.724;2024-03-23T06:56:33;20.17;;;10.77;;
73898;SDS011;62234;50.892;12.724;2024-03-23T06:58:59;25.60;;;12.77;;
73898;SDS011;62234;50.892;12.724;2024-03-23T07:01:25;26.98;;;13.30;;
73898;SDS011;62234;50.892;12.724;2024-03-23T07:03:51;21.60;;;12.35;;
73898;SDS011;62234;50.892;12.724;2024-03-23T07:06:17;20.73;;;11.23;;
73898;SDS011;62234;50.892;12.724;2024-03-23T07:08:43;25.83;;;11.50;;
73898;SDS011;62234;50.892;12.724;2024-03-23T07:11:09;22.67;;;9.95;;
73898;SDS011;62234;50.892;12.724;2024-03-23T07:13:35;23.95;;;9.98;;
73898;SDS011;62234;50.892;12.724;2024-03-23T07:16:01;20.83;;;11.23;;
73898;SDS011;62234;50.892;12.724;2024-03-23T07:18:26;24.58;;;10.25;;
73898;SDS011;62234;50.892;12.724;2024-03-23T07:20:54;27.05;;;12.23;;
73898;SDS011;62234;50.892;12.724;2024-03-23T07:23:21;19.17;;;10.20;;
73898;SDS011;62234;50.892;12.724;2024-03-23T07:25:55;22.15;;;10.77;;
73898;SDS011;62234;50.892;12.724;2024-03-23T07:28:21;18.98;;;10.10;;
73898;SDS011;62234;50.892;12.724;2024-03-23T07:30:47;19.80;;;10.52;;
73898;SDS011;62234;50.892;12.724;2024-03-23T07:33:13;21.08;;;10.90;;
73898;SDS011;62234;50.892;12.724;2024-03-23T07:35:39;17.23;;;8.48;;
73898;SDS011;62234;50.892;12.724;2024-03-23T07:38:05;20.15;;;8.30;;
73898;SDS011;62234;50.892;12.724;2024-03-23T07:40:31;16.77;;;8.77;;
73898;SDS011;62234;50.892;12.724;2024-03-23T07:42:57;12.38;;;8.25;;
73898;SDS011;62234;50.892;12.724;2024-03-23T07:45:23;12.10;;;6.78;;
73898;SDS011;62234;50.892;12.724;2024-03-23T07:47:48;11.10;;;7.40;;
73898;SDS011;62234;50.892;12.724;2024-03-23T07:50:14;11.60;;;6.05;;
73898;SDS011;62234;50.892;12.724;2024-03-23T07:52:40;10.10;;;6.28;;
73898;SDS011;62234;50.892;12.724;2024-03-23T07:55:06;12.57;;;6.28;;
73898;SDS011;62234;50.892;12.724;2024-03-23T07:57:32;9.40;;;6.50;;
73898;SDS011;62234;50.892;12.724;2024-03-23T07:59:58;9.57;;;5.72;;
73898;SDS011;62234;50.892;12.724;2024-03-23T08:02:24;9.25;;;5.82;;
73898;SDS011;62234;50.892;12.724;2024-03-23T08:04:50;12.05;;;6.55;;
73898;SDS011;62234;50.892;12.724;2024-03-23T08:07:16;8.50;;;5.80;;
73898;SDS011;62234;50.892;12.724;2024-03-23T08:09:42;8.82;;;6.05;;
73898;SDS011;62234;50.892;12.724;2024-03-23T08:12:07;11.27;;;6.72;;
73898;SDS011;62234;50.892;12.724;2024-03-23T08:14:34;9.80;;;6.65;;
73898;SDS011;62234;50.892;12.724;2024-03-23T08:16:59;9.85;;;5.00;;
73898;SDS011;62234;50.892;12.724;2024-03-23T08:19:25;9.55;;;5.57;;
73898;SDS011;62234;50.892;12.724;2024-03-23T08:21:51;9.88;;;5.80;;
73898;SDS011;62234;50.892;12.724;2024-03-23T08:24:19;8.73;;;5.55;;
73898;SDS011;62234;50.892;12.724;2024-03-23T08:26:45;10.68;;;5.80;;
73898;SDS011;62234;50.892;12.724;2024-03-23T08:29:11;11.75;;;5.40;;
73898;SDS011;62234;50.892;12.724;2024-03-23T08:31:37;11.25;;;6.43;;
73898;SDS011;62234;50.892;12.724;2024-03-23T08:34:02;12.27;;;7.03;;
73898;SDS011;62234;50.892;12.724;2024-03-23T08:36:28;11.65;;;7.10;;
73898;SDS011;62234;50.892;12.724;2024-03-23T08:38:55;8.02;;;5.13;;
73898;SDS011;62234;50.892;12.724;2024-03-23T08:41:21;10.93;;;6.13;;
73898;SDS011;62234;50.892;12.724;2024-03-23T08:43:47;12.18;;;6.53;;
73898;SDS011;62234;50.892;12.724;2024-03-23T08:46:14;7.88;;;3.90;;
73898;SDS011;62234;50.892;12.724;2024-03-23T08:48:41;4.80;;;2.72;;
73898;SDS011;62234;50.892;12.724;2024-03-23T08:51:08;0.40;;;0.40;;
73898;SDS011;62234;50.892;12.724;2024-03-23T08:53:35;0.32;;;0.32;;
73898;SDS011;62234;50.892;12.724;2024-03-23T08:56:01;2.05;;;0.40;;
73898;SDS011;62234;50.892;12.724;2024-03-23T08:58:27;0.32;;;0.28;;
73898;SDS011;62234;50.892;12.724;2024-03-23T09:00:54;2.05;;;1.23;;
73898;SDS011;62234;50.892;12.724;2024-03-23T09:03:21;0.10;;;0.00;;
73898;SDS011;62234;50.892;12.724;2024-03-23T09:05:47;0.40;;;0.20;;
73898;SDS011;62234;50.892;12.724;2024-03-23T09:08:13;0.45;;;0.20;;
73898;SDS011;62234;50.892;12.724;2024-03-23T09:10:39;0.68;;;0.60;;
73898;SDS011;62234;50.892;12.724;2024-03-23T09:13:05;0.10;;;0.10;;
73898;SDS011;62234;50.892;12.724;2024-03-23T09:15:35;0.17;;;0.17;;
73898;SDS011;62234;50.892;12.724;2024-03-23T09:18:01;0.73;;;0.30;;
73898;SDS011;62234;50.892;12.724;2024-03-23T09:20:27;0.17;;;0.17;;
73898;SDS011;62234;50.892;12.724;2024-03-23T09:22:53;0.20;;;0.20;;
73898;SDS011;62234;50.892;12.724;2024-03-23T09:25:19;0.70;;;0.35;;
73898;SDS011;62234;50.892;12.724;2024-03-23T09:27:48;0.63;;;0.43;;
73898;SDS011;62234;50.892;12.724;2024-03-23T09:30:14;0.00;;;0.00;;
73898;SDS011;62234;50.892;12.724;2024-03-23T09:32:43;0.73;;;0.73;;
73898;SDS011;62234;50.892;12.724;2024-03-23T09:35:10;1.20;;;0.35;;
73898;SDS011;62234;50.892;12.724;2024-03-23T09:37:36;0.57;;;0.05;;
73898;SDS011;62234;50.892;12.724;2024-03-23T09:40:03;0.75;;;0.63;;
73898;SDS011;62234;50.892;12.724;2024-03-23T09:42:30;0.30;;;0.20;;
73898;SDS011;62234;50.892;12.724;2024-03-23T09:44:57;1.00;;;0.80;;
73898;SDS011;62234;50.892;12.724;2024-03-23T09:47:23;0.20;;;0.10;;
73898;SDS011;62234;50.892;12.724;2024-03-23T09:49:50;0.20;;;0.20;;
73898;SDS011;62234;50.892;12.724;2024-03-23T09:52:16;0.20;;;0.20;;
73898;SDS011;62234;50.892;12.724;2024-03-23T09:54:42;0.13;;;0.05;;
73898;SDS011;62234;50.892;12.724;2024-03-23T09:57:08;2.65;;;0.20;;
73898;SDS011;62234;50.892;12.724;2024-03-23T09:59:34;0.20;;;0.20;;
73898;SDS011;62234;50.892;12.724;2024-03-23T10:02:01;0.85;;;0.10;;
73898;SDS011;62234;50.892;12.724;2024-03-23T10:04:36;0.10;;;0.10;;
73898;SDS011;62234;50.892;12.724;2024-03-23T10:09:38;0.10;;;0.10;;
73898;SDS011;62234;50.892;12.724;2024-03-23T10:12:07;0.63;;;0.10;;
73898;SDS011;62234;50.892;12.724;2024-03-23T10:14:33;0.10;;;0.10;;
73898;SDS011;62234;50.892;12.724;2024-03-23T10:17:11;2.33;;;1.00;;
73898;SDS011;62234;50.892;12.724;2024-03-23T10:19:38;0.52;;;0.40;;
73898;SDS011;62234;50.892;12.724;2024-03-23T10:22:04;1.90;;;1.67;;
73898;SDS011;62234;50.892;12.724;2024-03-23T10:24:30;3.15;;;1.65;;
73898;SDS011;62234;50.892;12.724;2024-03-23T10:26:56;2.80;;;2.10;;
73898;SDS011;62234;50.892;12.724;2024-03-23T10:29:22;2.05;;;0.93;;
73898;SDS011;62234;50.892;12.724;2024-03-23T10:31:48;1.58;;;0.98;;
73898;SDS011;62234;50.892;12.724;2024-03-23T10:34:15;1.10;;;0.65;;
73898;SDS011;62234;50.892;12.724;2024-03-23T10:36:41;0.32;;;0.22;;
73898;SDS011;62234;50.892;12.724;2024-03-23T10:39:07;0.22;;;0.22;;
73898;SDS011;62234;50.892;12.724;2024-03-23T10:41:33;0.55;;;0.47;;
73898;SDS011;62234;50.892;12.724;2024-03-23T10:43:59;0.50;;;0.38;;
73898;SDS011;62234;50.892;12.724;2024-03-23T10:46:27;0.60;;;0.50;;
73898;SDS011;62234;50.892;12.724;2024-03-23T10:48:53;0.55;;;0.38;;
73898;SDS011;62234;50.892;12.724;2024-03-23T10:51:19;0.28;;;0.28;;
73898;SDS011;62234;50.892;12.724;2024-03-23T10:53:45;1.60;;;0.55;;
73898;SDS011;62234;50.892;12.724;2024-03-23T10:56:11;0.10;;;0.10;;
73898;SDS011;62234;50.892;12.724;2024-03-23T10:58:38;0.10;;;0.00;;
73898;SDS011;62234;50.892;12.724;2024-03-23T11:01:05;0.10;;;0.10;;
73898;SDS011;62234;50.892;12.724;2024-03-23T11:03:34;0.40;;;0.20;;
73898;SDS011;62234;50.892;12.724;2024-03-23T11:06:06;0.73;;;0.73;;
73898;SDS011;62234;50.892;12.724;2024-03-23T11:08:36;1.95;;;0.45;;
73898;SDS011;62234;50.892;12.724;2024-03-23T11:11:12;0.57;;;0.50;;
73898;SDS011;62234;50.892;12.724;2024-03-23T11:13:39;0.73;;;0.20;;
73898;SDS011;62234;50.892;12.724;2024-03-23T11:16:22;0.30;;;0.30;;
73898;SDS011;62234;50.892;12.724;2024-03-23T11:18:49;0.00;;;0.00;;
73898;SDS011;62234;50.892;12.724;2024-03-23T11:24:14;0.10;;;0.10;;
73898;SDS011;62234;50.892;12.724;2024-03-23T11:26:40;0.13;;;0.10;;
73898;SDS011;62234;50.892;12.724;2024-03-23T11:29:13;0.10;;;0.10;;
73898;SDS011;62234;50.892;12.724;2024-03-23T11:31:46;0.55;;;0.55;;
73898;SDS011;62234;50.892;12.724;2024-03-23T11:34:12;0.20;;;0.20;;
73898;SDS011;62234;50.892;12.724;2024-03-23T11:36:38;0.50;;;0.40;;
73898;SDS011;62234;50.892;12.724;2024-03-23T11:39:16;0.63;;;0.63;;
73898;SDS011;62234;50.892;12.724;2024-03-23T11:41:49;1.77;;;0.45;;
73898;SDS011;62234;50.892;12.724;2024-03-23T11:44:25;0.28;;;0.25;;
73898;SDS011;62234;50.892;12.724;2024-03-23T11:46:51;0.52;;;0.40;;
73898;SDS011;62234;50.892;12.724;2024-03-23T11:51:49;0.65;;;0.30;;
73898;SDS011;62234;50.892;12.724;2024-03-23T11:54:16;0.10;;;0.10;;
73898;SDS011;62234;50.892;12.724;2024-03-23T11:56:53;0.10;;;0.10;;
73898;SDS011;62234;50.892;12.724;2024-03-23T11:59:35;0.00;;;0.00;;
73898;SDS011;62234;50.892;12.724;2024-03-23T12:02:11;0.00;;;0.00;;
73898;SDS011;62234;50.892;12.724;2024-03-23T12:04:40;0.00;;;0.00;;
73898;SDS011;62234;50.892;12.724;2024-03-23T12:09:36;0.45;;;0.15;;
73898;SDS011;62234;50.892;12.724;2024-03-23T12:12:06;0.30;;;0.20;;
73898;SDS011;62234;50.892;12.724;2024-03-23T12:14:31;0.38;;;0.30;;
73898;SDS011;62234;50.892;12.724;2024-03-23T12:17:06;0.00;;;0.00;;
73898;SDS011;62234;50.892;12.724;2024-03-23T12:19:32;0.10;;;0.10;;
73898;SDS011;62234;50.892;12.724;2024-03-23T12:21:58;0.10;;;0.10;;
73898;SDS011;62234;50.892;12.724;2024-03-23T12:24:25;0.00;;;0.00;;
73898;SDS011;62234;50.892;12.724;2024-03-23T12:26:51;1.85;;;0.38;;
73898;SDS011;62234;50.892;12.724;2024-03-23T12:29:20;0.25;;;0.20;;
73898;SDS011;62234;50.892;12.724;2024-03-23T12:31:46;0.75;;;0.43;;
73898;SDS011;62234;50.892;12.724;2024-03-23T12:34:12;0.52;;;0.50;;
73898;SDS011;62234;50.892;12.724;2024-03-23T12:36:38;0.38;;;0.38;;
73898;SDS011;62234;50.892;12.724;2024-03-23T12:39:04;0.50;;;0.50;;
73898;SDS011;62234;50.892;12.724;2024-03-23T12:41:30;0.65;;;0.65;;
73898;SDS011;62234;50.892;12.724;2024-03-23T12:43:56;1.67;;;0.45;;
73898;SDS011;62234;50.892;12.724;2024-03-23T12:46:22;0.55;;;0.30;;
73898;SDS011;62234;50.892;12.724;2024-03-23T12:48:48;0.65;;;0.40;;
73898;SDS011;62234;50.892;12.724;2024-03-23T12:51:14;0.50;;;0.40;;
73898;SDS011;62234;50.892;12.724;2024-03-23T12:53:40;0.82;;;0.75;;
73898;SDS011;62234;50.892;12.724;2024-03-23T12:56:06;1.50;;;0.55;;
73898;SDS011;62234;50.892;12.724;2024-03-23T12:58:32;1.13;;;0.70;;
73898;SDS011;62234;50.892;12.724;2024-03-23T13:00:58;0.70;;;0.70;;
73898;SDS011;62234;50.892;12.724;2024-03-23T13:03:24;0.85;;;0.50;;
73898;SDS011;62234;50.892;12.724;2024-03-23T13:05:53;1.00;;;0.90;;
73898;SDS011;62234;50.892;12.724;2024-03-23T13:08:19;1.85;;;0.70;;
73898;SDS011;62234;50.892;12.724;2024-03-23T13:10:45;3.65;;;0.52;;
73898;SDS011;62234;50.892;12.724;2024-03-23T13:13:12;0.85;;;0.60;;
73898;SDS011;62234;50.892;12.724;2024-03-23T13:15:38;2.72;;;0.60;;
73898;SDS011;62234;50.892;12.724;2024-03-23T13:18:04;2.95;;;1.02;;
73898;SDS011;62234;50.892;12.724;2024-03-23T13:20:29;1.30;;;0.70;;
73898;SDS011;62234;50.892;12.724;2024-03-23T13:22:55;1.42;;;0.77;;
73898;SDS011;62234;50.892;12.724;2024-03-23T13:25:21;0.60;;;0.55;;
73898;SDS011;62234;50.892;12.724;2024-03-23T13:27:47;4.22;;;0.88;;
73898;SDS011;62234;50.892;12.724;2024-03-23T13:30:13;6.80;;;1.00;;
73898;SDS011;62234;50.892;12.724;2024-03-23T13:32:39;4.65;;;0.82;;
73898;SDS011;62234;50.892;12.724;2024-03-23T13:35:05;3.83;;;1.25;;
73898;SDS011;62234;50.892;12.724;2024-03-23T13:37:31;4.13;;;1.20;;
73898;SDS011;62234;50.892;12.724;2024-03-23T13:39:57;4.88;;;1.20;;
73898;SDS011;62234;50.892;12.724;2024-03-23T13:42:23;4.45;;;0.98;;
73898;SDS011;62234;50.892;12.724;2024-03-23T13:44:50;2.47;;;0.90;;
73898;SDS011;62234;50.892;12.724;2024-03-23T13:47:16;1.02;;;0.70;;
73898;SDS011;62234;50.892;12.724;2024-03-23T13:49:43;2.45;;;1.40;;
73898;SDS011;62234;50.892;12.724;2024-03-23T13:52:09;2.78;;;1.42;;
73898;SDS011;62234;50.892;12.724;2024-03-23T13:54:35;5.45;;;1.25;;
73898;SDS011;62234;50.892;12.724;2024-03-23T13:57:02;5.72;;;1.88;;
73898;SDS011;62234;50.892;12.724;2024-03-23T13:59:28;8.32;;;1.67;;
73898;SDS011;62234;50.892;12.724;2024-03-23T14:01:55;2.40;;;1.38;;
73898;SDS011;62234;50.892;12.724;2024-03-23T14:04:21;2.97;;;1.10;;
73898;SDS011;62234;50.892;12.724;2024-03-23T14:06:48;4.05;;;1.30;;
73898;SDS011;62234;50.892;12.724;2024-03-23T14:09:14;3.25;;;1.70;;
73898;SDS011;62234;50.892;12.724;2024-03-23T14:11:45;3.60;;;1.35;;
73898;SDS011;62234;50.892;12.724;2024-03-23T14:14:11;4.30;;;1.23;;
73898;SDS011;62234;50.892;12.724;2024-03-23T14:16:37;2.25;;;1.08;;
73898;SDS011;62234;50.892;12.724;2024-03-23T14:19:03;1.25;;;0.40;;
73898;SDS011;62234;50.892;12.724;2024-03-23T14:21:30;0.47;;;0.47;;
73898;SDS011;62234;50.892;12.724;2024-03-23T14:23:56;4.63;;;1.73;;
73898;SDS011;62234;50.892;12.724;2024-03-23T14:26:22;4.15;;;2.03;;
73898;SDS011;62234;50.892;12.724;2024-03-23T14:28:49;2.45;;;1.35;;
73898;SDS011;62234;50.892;12.724;2024-03-23T14:31:15;2.15;;;1.42;;
73898;SDS011;62234;50.892;12.724;2024-03-23T14:33:41;3.78;;;1.80;;
73898;SDS011;62234;50.892;12.724;2024-03-23T14:36:12;3.53;;;1.90;;
73898;SDS011;62234;50.892;12.724;2024-03-23T14:38:38;2.08;;;1.38;;
73898;SDS011;62234;50.892;12.724;2024-03-23T14:41:04;2.83;;;1.70;;
73898;SDS011;62234;50.892;12.724;2024-03-23T14:43:30;1.90;;;1.33;;
73898;SDS011;62234;50.892;12.724;2024-03-23T14:46:05;3.45;;;1.70;;
73898;SDS011;62234;50.892;12.724;2024-03-23T14:48:32;1.73;;;0.90;;
73898;SDS011;62234;50.892;12.724;2024-03-23T14:50:58;2.20;;;1.38;;
73898;SDS011;62234;50.892;12.724;2024-03-23T14:53:25;3.13;;;1.00;;
73898;SDS011;62234;50.892;12.724;2024-03-23T14:55:54;2.65;;;1.58;;
73898;SDS011;62234;50.892;12.724;2024-03-23T14:58:20;2.70;;;2.15;;
73898;SDS011;62234;50.892;12.724;2024-03-23T15:00:47;2.60;;;1.10;;
73898;SDS011;62234;50.892;12.724;2024-03-23T15:03:13;2.03;;;0.90;;
73898;SDS011;62234;50.892;12.724;2024-03-23T15:05:39;1.98;;;0.93;;
73898;SDS011;62234;50.892;12.724;2024-03-23T15:08:05;1.33;;;0.82;;
73898;SDS011;62234;50.892;12.724;2024-03-23T15:10:34;3.50;;;1.05;;
73898;SDS011;62234;50.892;12.724;2024-03-23T15:13:00;2.28;;;0.65;;
73898;SDS011;62234;50.892;12.724;2024-03-23T15:15:26;0.52;;;0.50;;
73898;SDS011;62234;50.892;12.724;2024-03-23T15:17:52;3.75;;;1.00;;
73898;SDS011;62234;50.892;12.724;2024-03-23T15:20:18;4.03;;;1.10;;
73898;SDS011;62234;50.892;12.724;2024-03-23T15:22:44;1.63;;;1.25;;
73898;SDS011;62234;50.892;12.724;2024-03-23T15:25:10;2.08;;;0.93;;
73898;SDS011;62234;50.892;12.724;2024-03-23T15:27:37;2.40;;;1.02;;